createdAt,value
2022-10-11T00:03:00.123Z,12.31
2022-10-11T00:06:05.832Z,12.47
2022-10-11T00:09:13.884Z,12.53
2022-10-11T00:12:17.001Z,12.51
2022-10-11T00:15:21.682Z,12.41
2022-10-11T00:18:24.995Z,12.38
2022-10-11T00:21:27.884Z,12.28
2022-10-11T00:24:31.046Z,12.13
2022-10-11T00:27:34.722Z,12.23
2022-10-11T00:30:37.684Z,12.21
2022-10-11T00:33:40.594Z,12.07
2022-10-11T00:36:45.226Z,11.98
2022-10-11T00:39:47.960Z,11.96
2022-10-11T00:42:51.701Z,12.02
2022-10-11T00:45:58.214Z,11.93
2022-10-11T00:49:27.465Z,11.86
2022-10-11T00:52:35.178Z,11.89
2022-10-11T00:55:42.917Z,11.90
2022-10-11T00:58:45.831Z,11.76
2022-10-11T01:01:49.578Z,11.79
2022-10-11T01:05:11.410Z,11.82
2022-10-11T01:08:16.680Z,11.71
2022-10-11T01:11:23.256Z,11.71
2022-10-11T01:14:51.019Z,11.70
2022-10-11T01:18:22.000Z,11.52
2022-10-11T01:21:39.336Z,11.70
2022-10-11T01:24:42.047Z,11.74
2022-10-11T01:28:01.923Z,11.67
2022-10-11T01:31:15.830Z,11.79
2022-10-11T01:34:19.065Z,11.88
2022-10-11T01:37:30.295Z,11.78
2022-10-11T01:40:47.109Z,11.61
2022-10-11T01:43:52.501Z,11.73
2022-10-11T01:46:55.777Z,11.77
2022-10-11T01:50:01.144Z,11.82
2022-10-11T01:53:23.007Z,11.82
2022-10-11T01:56:34.153Z,11.81
2022-10-11T02:00:09.150Z,11.88
2022-10-11T02:03:59.505Z,11.84
2022-10-11T02:07:17.347Z,11.86
2022-10-11T02:10:28.971Z,11.89
2022-10-11T02:13:38.213Z,11.90
2022-10-11T02:16:45.832Z,11.79
2022-10-11T02:19:53.022Z,11.95
2022-10-11T02:23:20.775Z,12.05
2022-10-11T02:26:28.025Z,11.89
2022-10-11T02:29:36.101Z,11.65
2022-10-11T02:32:42.299Z,11.57
2022-10-11T02:35:49.740Z,11.66
2022-10-11T02:38:59.728Z,11.56
2022-10-11T02:42:06.845Z,11.48
2022-10-11T02:45:25.455Z,11.34
2022-10-11T02:48:29.660Z,11.32
2022-10-11T02:51:33.863Z,11.46
2022-10-11T02:54:37.254Z,11.44
2022-10-11T02:57:40.129Z,11.41
2022-10-11T03:00:43.758Z,11.30
2022-10-11T03:03:46.895Z,11.23
2022-10-11T03:06:49.711Z,11.32
2022-10-11T03:09:52.791Z,11.48
2022-10-11T03:12:55.397Z,11.34
2022-10-11T03:16:07.203Z,11.29
2022-10-11T03:19:10.342Z,11.44
2022-10-11T03:22:13.454Z,11.39
2022-10-11T03:25:16.938Z,11.26
2022-10-11T03:28:20.454Z,11.42
2022-10-11T03:31:23.950Z,11.46
2022-10-11T03:34:27.055Z,11.40
2022-10-11T03:37:29.791Z,11.34
2022-10-11T03:40:32.772Z,11.37
2022-10-11T03:43:36.133Z,11.48
2022-10-11T03:46:39.294Z,11.41
2022-10-11T03:49:43.795Z,11.45
2022-10-11T03:52:46.952Z,11.36
2022-10-11T03:55:54.364Z,11.29
2022-10-11T03:58:57.521Z,11.19
2022-10-11T04:02:00.495Z,11.13
2022-10-11T04:05:05.958Z,11.19
2022-10-11T04:08:12.156Z,11.17
2022-10-11T04:11:15.982Z,11.16
2022-10-11T04:14:19.003Z,11.41
2022-10-11T04:17:22.295Z,11.41
2022-10-11T04:20:25.039Z,11.43
2022-10-11T04:23:28.001Z,11.43
2022-10-11T04:26:30.719Z,11.46
2022-10-11T04:29:33.718Z,11.52
2022-10-11T04:32:37.052Z,11.60
2022-10-11T04:35:40.374Z,11.55
2022-10-11T04:38:43.178Z,11.48
2022-10-11T04:41:46.437Z,11.67
2022-10-11T04:44:49.224Z,11.80
2022-10-11T04:47:52.283Z,11.83
2022-10-11T04:50:58.662Z,11.75
2022-10-11T04:54:01.485Z,11.70
2022-10-11T04:57:04.259Z,11.78
2022-10-11T05:00:07.707Z,11.74
2022-10-11T05:03:10.352Z,11.78
2022-10-11T05:06:13.792Z,11.67
2022-10-11T05:09:16.911Z,11.42
2022-10-11T05:12:20.063Z,11.41
2022-10-11T05:15:22.588Z,11.51
2022-10-11T05:18:25.919Z,11.55
2022-10-11T05:21:29.994Z,11.51
2022-10-11T05:24:33.108Z,11.59
2022-10-11T05:27:35.691Z,11.90
2022-10-11T05:30:38.713Z,11.83
2022-10-11T05:33:41.467Z,11.74
2022-10-11T05:36:47.202Z,11.75
2022-10-11T05:39:49.813Z,12.19
2022-10-11T05:42:52.664Z,11.98
2022-10-11T05:45:55.295Z,12.02
2022-10-11T05:48:58.158Z,12.17
2022-10-11T05:52:00.673Z,12.08
2022-10-11T05:55:03.823Z,12.16
2022-10-11T05:58:07.408Z,12.17
2022-10-11T06:01:20.644Z,12.49
2022-10-11T06:04:23.491Z,12.59
2022-10-11T06:07:26.468Z,12.67
2022-10-11T06:10:29.275Z,12.60
2022-10-11T06:13:32.255Z,12.71
2022-10-11T06:16:35.083Z,12.90
2022-10-11T06:19:37.557Z,12.91
2022-10-11T06:22:40.357Z,13.03
2022-10-11T06:25:42.814Z,13.29
2022-10-11T06:28:46.054Z,13.30
2022-10-11T06:31:48.998Z,13.30
2022-10-11T06:34:51.803Z,13.38
2022-10-11T06:37:54.655Z,13.39
2022-10-11T06:40:57.561Z,13.67
2022-10-11T06:44:00.353Z,14.45
2022-10-11T06:47:03.550Z,14.84
2022-10-11T06:50:06.449Z,14.76
2022-10-11T06:53:09.789Z,14.92
2022-10-11T06:56:13.432Z,14.55
2022-10-11T06:59:16.318Z,14.50
2022-10-11T07:02:19.075Z,15.32
2022-10-11T07:05:22.066Z,15.24
2022-10-11T07:08:27.646Z,16.04
2022-10-11T07:11:30.815Z,16.99
2022-10-11T07:14:33.367Z,17.54
2022-10-11T07:17:36.255Z,17.22
2022-10-11T07:20:38.837Z,17.46
2022-10-11T07:23:43.345Z,17.51
2022-10-11T07:26:46.153Z,17.86
2022-10-11T07:29:49.281Z,17.84
2022-10-11T07:32:52.129Z,18.61
2022-10-11T07:35:57.800Z,18.25
2022-10-11T07:39:00.638Z,18.37
2022-10-11T07:42:03.719Z,18.19
2022-10-11T07:45:06.596Z,18.64
2022-10-11T07:48:09.634Z,18.44
2022-10-11T07:51:15.274Z,18.24
2022-10-11T07:54:18.120Z,19.09
2022-10-11T07:57:20.646Z,19.56
2022-10-11T08:00:24.275Z,19.53
2022-10-11T08:03:27.017Z,19.15
2022-10-11T08:06:32.772Z,19.37
2022-10-11T08:09:35.960Z,19.64
2022-10-11T08:12:38.882Z,20.48
2022-10-11T08:15:41.898Z,20.16
2022-10-11T08:18:44.919Z,19.35
2022-10-11T08:21:48.191Z,20.34
2022-10-11T08:24:50.984Z,20.18
2022-10-11T08:27:54.166Z,21.16
2022-10-11T08:30:56.991Z,19.99
2022-10-11T08:34:00.020Z,20.54
2022-10-11T08:37:02.543Z,21.02
2022-10-11T08:40:06.634Z,21.64
2022-10-11T08:43:24.936Z,21.30
2022-10-11T08:46:32.024Z,21.34
2022-10-11T08:49:35.033Z,22.18
2022-10-11T08:52:37.811Z,22.64
2022-10-11T08:55:51.345Z,22.92
2022-10-11T08:59:12.652Z,23.45
2022-10-11T09:03:03.397Z,22.29
2022-10-11T09:06:07.565Z,20.62
2022-10-11T09:09:46.075Z,20.29
2022-10-11T09:13:16.239Z,20.19
2022-10-11T09:16:36.917Z,20.47
2022-10-11T09:19:55.196Z,22.24
2022-10-11T09:23:00.778Z,23.97
2022-10-11T09:26:10.702Z,24.83
2022-10-11T09:29:28.987Z,23.66
2022-10-11T09:32:38.094Z,24.05
2022-10-11T09:35:45.406Z,24.14
2022-10-11T09:38:57.302Z,23.26
2022-10-11T09:42:08.802Z,23.69
2022-10-11T09:45:20.969Z,22.91
2022-10-11T09:48:28.447Z,23.04
2022-10-11T09:51:32.798Z,21.57
2022-10-11T09:54:44.499Z,23.61
2022-10-11T09:57:54.798Z,23.61
2022-10-11T10:01:09.575Z,25.82
2022-10-11T10:04:16.966Z,24.14
2022-10-11T10:07:20.267Z,24.46
2022-10-11T10:10:34.049Z,24.64
2022-10-11T10:13:42.234Z,25.19
2022-10-11T10:16:45.065Z,26.52
2022-10-11T10:19:51.803Z,25.34
2022-10-11T10:22:54.964Z,24.53
2022-10-11T10:26:30.753Z,25.82
2022-10-11T10:29:33.917Z,25.91
2022-10-11T10:32:52.199Z,25.52
2022-10-11T10:36:05.872Z,25.98
2022-10-11T10:39:16.301Z,26.42
2022-10-11T10:42:20.668Z,25.10
2022-10-11T10:45:30.049Z,24.42
2022-10-11T10:52:21.361Z,23.46
2022-10-11T10:55:44.504Z,26.56
2022-10-11T10:59:12.207Z,26.70
2022-10-11T11:02:40.305Z,26.07
2022-10-11T11:06:24.405Z,23.55
2022-10-11T11:09:41.664Z,23.57
2022-10-11T11:13:20.005Z,22.39
2022-10-11T11:16:26.002Z,23.26
2022-10-11T11:19:44.941Z,22.34
2022-10-11T11:23:08.194Z,22.52
2022-10-11T11:26:32.149Z,22.13
2022-10-11T11:30:02.530Z,23.17
2022-10-11T11:33:37.723Z,22.20
2022-10-11T11:36:57.997Z,22.55
2022-10-11T11:40:35.518Z,22.90
2022-10-11T11:43:51.877Z,22.96
2022-10-11T11:47:03.949Z,23.39
2022-10-11T11:50:15.133Z,23.05
2022-10-11T11:53:24.756Z,23.55
2022-10-11T11:56:27.773Z,24.57
2022-10-11T11:59:33.924Z,24.08
2022-10-11T12:02:57.501Z,22.78
2022-10-11T12:06:18.356Z,22.85
2022-10-11T12:09:23.078Z,23.87
2022-10-11T12:12:36.476Z,23.35
2022-10-11T12:15:39.187Z,23.31
2022-10-11T12:18:59.695Z,22.75
2022-10-11T12:22:37.775Z,21.93
2022-10-11T12:25:42.596Z,21.63
2022-10-11T12:29:04.485Z,21.76
2022-10-11T12:32:07.298Z,22.63
2022-10-11T12:35:36.599Z,21.85
2022-10-11T12:38:43.266Z,21.80
2022-10-11T12:41:49.855Z,21.80
2022-10-11T12:45:10.757Z,21.56
2022-10-11T12:48:41.042Z,22.11
2022-10-11T12:51:50.367Z,22.04
2022-10-11T12:54:52.829Z,21.34
2022-10-11T12:58:12.235Z,21.92
2022-10-11T13:01:23.336Z,21.21
2022-10-11T13:04:31.804Z,20.84
2022-10-11T13:07:35.730Z,21.07
2022-10-11T13:10:44.322Z,21.47
2022-10-11T13:13:56.483Z,21.20
2022-10-11T13:17:16.950Z,20.92
2022-10-11T13:20:25.227Z,21.09
2022-10-11T13:23:34.731Z,20.92
2022-10-11T13:26:38.051Z,20.99
2022-10-11T13:29:44.960Z,20.93
2022-10-11T13:32:47.814Z,21.28
2022-10-11T13:35:52.413Z,21.55
2022-10-11T13:39:00.439Z,20.81
2022-10-11T13:42:08.946Z,21.07
2022-10-11T13:45:15.133Z,21.33
2022-10-11T13:48:19.796Z,21.32
2022-10-11T13:51:38.377Z,21.16
2022-10-11T13:54:54.584Z,20.58
2022-10-11T13:57:59.325Z,20.65
2022-10-11T14:01:17.312Z,21.03
2022-10-11T14:04:20.502Z,21.17
2022-10-11T14:07:39.026Z,20.66
2022-10-11T14:10:51.736Z,20.20
2022-10-11T14:13:58.717Z,20.09
2022-10-11T14:17:10.992Z,20.13
2022-10-11T14:20:33.752Z,19.86
2022-10-11T14:23:36.578Z,19.92
2022-10-11T14:27:06.110Z,20.24
2022-10-11T14:30:25.470Z,20.28
2022-10-11T14:33:28.901Z,20.04
2022-10-11T14:36:34.767Z,20.13
2022-10-11T14:39:37.828Z,20.14
2022-10-11T14:42:41.897Z,19.89
2022-10-11T14:45:44.722Z,19.97
2022-10-11T14:48:55.331Z,20.00
2022-10-11T14:51:59.193Z,19.87
2022-10-11T14:55:02.275Z,20.02
2022-10-11T14:58:09.612Z,20.12
2022-10-11T15:01:15.757Z,20.00
2022-10-11T15:04:22.805Z,20.04
2022-10-11T15:07:25.641Z,20.14
2022-10-11T15:10:36.487Z,19.91
2022-10-11T15:13:39.395Z,19.77
2022-10-11T15:16:42.319Z,19.87
2022-10-11T15:19:45.690Z,19.96
2022-10-11T15:22:48.689Z,19.65
2022-10-11T15:26:07.104Z,19.69
2022-10-11T15:29:14.236Z,19.37
2022-10-11T15:32:17.168Z,19.44
2022-10-11T15:35:21.377Z,19.11
2022-10-11T15:38:25.787Z,19.04
2022-10-11T15:41:33.904Z,18.67
2022-10-11T15:44:36.717Z,18.71
2022-10-11T15:47:39.687Z,18.72
2022-10-11T15:50:43.219Z,18.59
2022-10-11T15:53:46.321Z,18.65
2022-10-11T15:56:49.195Z,18.53
2022-10-11T15:59:51.874Z,18.46
2022-10-11T16:02:56.647Z,18.50
2022-10-11T16:06:04.913Z,18.35
2022-10-11T16:09:08.607Z,18.48
2022-10-11T16:12:11.533Z,18.32
2022-10-11T16:15:17.409Z,18.42
2022-10-11T16:18:22.510Z,18.34
2022-10-11T16:21:25.123Z,18.25
2022-10-11T16:24:28.022Z,18.29
2022-10-11T16:27:31.419Z,18.24
2022-10-11T16:30:38.744Z,18.19
2022-10-11T16:33:47.740Z,18.00
2022-10-11T16:36:50.687Z,17.82
2022-10-11T16:39:53.380Z,17.95
2022-10-11T16:42:56.344Z,17.95
2022-10-11T16:45:58.906Z,17.71
2022-10-11T16:49:01.891Z,17.71
2022-10-11T16:52:04.704Z,17.70
2022-10-11T16:55:08.540Z,17.67
2022-10-11T16:58:11.251Z,17.72
2022-10-11T17:01:14.300Z,17.46
2022-10-11T17:04:17.109Z,17.34
2022-10-11T17:07:21.967Z,17.33
2022-10-11T17:10:39.285Z,17.31
2022-10-11T17:13:45.554Z,17.39
2022-10-11T17:16:48.258Z,17.25
2022-10-11T17:19:51.395Z,16.99
2022-10-11T17:22:55.199Z,17.09
2022-10-11T17:25:58.058Z,16.99
2022-10-11T17:29:02.266Z,17.15
2022-10-11T17:32:05.769Z,17.04
2022-10-11T17:35:09.336Z,17.12
2022-10-11T17:38:12.331Z,17.09
2022-10-11T17:41:15.434Z,17.07
2022-10-11T17:44:18.623Z,16.88
2022-10-11T17:47:21.238Z,16.82
2022-10-11T17:50:24.060Z,16.88
2022-10-11T17:53:26.908Z,16.98
2022-10-11T17:56:35.099Z,16.97
2022-10-11T17:59:40.314Z,16.87
2022-10-11T18:02:43.188Z,16.83
2022-10-11T18:05:46.030Z,16.68
2022-10-11T18:08:48.757Z,16.62
2022-10-11T18:11:52.045Z,16.48
2022-10-11T18:14:56.571Z,16.44
2022-10-11T18:17:59.871Z,16.42
2022-10-11T18:21:06.208Z,16.25
2022-10-11T18:24:16.430Z,16.28
2022-10-11T18:27:18.972Z,16.27
2022-10-11T18:30:22.294Z,16.34
2022-10-11T18:33:28.260Z,16.33
2022-10-11T18:36:35.559Z,16.00
2022-10-11T18:39:38.327Z,16.09
2022-10-11T18:42:44.544Z,15.62
2022-10-11T18:45:47.801Z,15.63
2022-10-11T18:48:56.238Z,15.46
2022-10-11T18:51:59.050Z,15.49
2022-10-11T18:55:05.514Z,15.50
2022-10-11T18:58:08.256Z,15.68
2022-10-11T19:01:17.318Z,15.61
2022-10-11T19:04:20.253Z,15.22
2022-10-11T19:07:26.573Z,15.16
2022-10-11T19:11:06.531Z,15.16
2022-10-11T19:14:16.551Z,15.14
2022-10-11T19:17:22.710Z,15.08
2022-10-11T19:20:25.599Z,15.07
2022-10-11T19:23:32.884Z,15.13
2022-10-11T19:26:38.138Z,15.29
2022-10-11T19:29:40.758Z,15.33
2022-10-11T19:32:43.785Z,15.39
2022-10-11T19:35:56.612Z,15.54
2022-10-11T19:39:00.091Z,15.56
2022-10-11T19:42:04.874Z,15.56
2022-10-11T19:45:08.882Z,15.60
2022-10-11T19:48:11.957Z,15.65
2022-10-11T19:51:22.637Z,15.49
2022-10-11T19:54:25.493Z,15.36
2022-10-11T19:57:28.360Z,15.13
2022-10-11T20:00:31.630Z,15.07
2022-10-11T20:03:34.884Z,15.07
2022-10-11T20:06:41.241Z,15.09
2022-10-11T20:09:44.210Z,15.09
2022-10-11T20:12:46.978Z,15.04
2022-10-11T20:15:50.013Z,15.16
2022-10-11T20:18:54.755Z,15.13
2022-10-11T20:21:57.645Z,15.19
2022-10-11T20:25:00.742Z,15.22
2022-10-11T20:28:03.797Z,15.35
2022-10-11T20:31:33.331Z,15.42
2022-10-11T20:34:39.453Z,15.32
2022-10-11T20:37:42.080Z,15.28
2022-10-11T20:40:45.352Z,15.27
2022-10-11T20:43:50.137Z,15.32
2022-10-11T20:46:54.501Z,15.42
2022-10-11T20:49:57.133Z,15.54
2022-10-11T20:53:00.158Z,15.54
2022-10-11T20:56:02.858Z,15.57
2022-10-11T20:59:07.589Z,15.09
2022-10-11T21:02:13.415Z,14.72
2022-10-11T21:05:19.502Z,14.89
2022-10-11T21:08:23.273Z,14.90
2022-10-11T21:11:31.885Z,14.95
2022-10-11T21:14:34.452Z,14.65
2022-10-11T21:17:37.266Z,14.54
2022-10-11T21:20:41.394Z,14.57
2022-10-11T21:23:44.325Z,14.50
2022-10-11T21:26:47.800Z,14.45
2022-10-11T21:29:51.805Z,14.33
2022-10-11T21:32:57.599Z,14.27
2022-10-11T21:36:07.527Z,14.18
2022-10-11T21:39:10.112Z,14.26
2022-10-11T21:42:12.943Z,14.16
2022-10-11T21:45:15.442Z,14.15
2022-10-11T21:48:18.295Z,14.08
2022-10-11T21:51:26.968Z,14.06
2022-10-11T21:54:29.715Z,14.12
2022-10-11T21:57:32.399Z,14.21
2022-10-11T22:00:35.541Z,14.17
2022-10-11T22:03:38.419Z,14.01
2022-10-11T22:06:40.953Z,13.98
2022-10-11T22:09:43.818Z,13.74
2022-10-11T22:12:46.937Z,13.79
2022-10-11T22:15:50.200Z,13.72
2022-10-11T22:18:56.086Z,13.64
2022-10-11T22:21:58.906Z,13.61
2022-10-11T22:25:01.769Z,13.72
2022-10-11T22:28:05.038Z,13.63
2022-10-11T22:31:09.483Z,13.69
2022-10-11T22:34:12.660Z,13.53
2022-10-11T22:37:15.136Z,13.63
2022-10-11T22:40:19.110Z,13.75
2022-10-11T22:43:22.000Z,13.74
2022-10-11T22:46:24.843Z,13.73
2022-10-11T22:49:27.277Z,13.61
2022-10-11T22:52:30.359Z,13.59
2022-10-11T22:55:33.370Z,13.49
2022-10-11T22:58:36.442Z,13.49
2022-10-11T23:01:39.010Z,13.47
2022-10-11T23:04:41.812Z,13.49
2022-10-11T23:07:46.572Z,13.42
2022-10-11T23:10:49.741Z,13.44
2022-10-11T23:13:52.455Z,13.42
2022-10-11T23:16:55.188Z,13.41
2022-10-11T23:19:58.015Z,13.42
2022-10-11T23:23:00.898Z,13.42
2022-10-11T23:26:16.021Z,13.40
2022-10-11T23:29:18.918Z,13.37
2022-10-11T23:32:21.580Z,13.38
2022-10-11T23:35:24.417Z,13.31
2022-10-11T23:38:26.943Z,13.32
2022-10-11T23:41:30.546Z,13.27
2022-10-11T23:44:33.520Z,13.18
2022-10-11T23:47:36.677Z,13.11
2022-10-11T23:50:39.759Z,13.12
2022-10-11T23:53:42.681Z,13.05
2022-10-11T23:56:45.189Z,13.04
2022-10-11T23:59:48.079Z,12.96
